createdAt,value
2018-11-27T00:01:48.092Z,49.87
2018-11-27T00:04:17.097Z,43.70
2018-11-27T00:06:46.092Z,40.83
2018-11-27T00:09:15.285Z,40.13
2018-11-27T00:11:44.478Z,41.53
2018-11-27T00:14:13.481Z,39.70
2018-11-27T00:16:42.475Z,36.07
2018-11-27T00:19:11.533Z,42.80
2018-11-27T00:21:40.570Z,35.57
2018-11-27T00:24:09.791Z,39.57
2018-11-27T00:26:39.234Z,39.33
2018-11-27T00:29:08.223Z,38.37
2018-11-27T00:31:37.216Z,39.97
2018-11-27T00:34:06.798Z,39.93
2018-11-27T00:36:35.856Z,41.93
2018-11-27T00:39:07.248Z,38.60
2018-11-27T00:41:36.232Z,38.50
2018-11-27T00:44:05.307Z,37.03
2018-11-27T00:46:34.309Z,38.27
2018-11-27T00:49:03.517Z,40.97
2018-11-27T00:51:32.810Z,43.67
2018-11-27T00:54:01.801Z,41.03
2018-11-27T00:56:30.876Z,43.97
2018-11-27T00:59:00.926Z,42.93
2018-11-27T01:01:29.971Z,49.43
2018-11-27T01:03:59.317Z,42.37
2018-11-27T01:06:28.299Z,44.97
2018-11-27T01:08:57.678Z,42.20
2018-11-27T01:11:26.750Z,41.80
2018-11-27T01:13:55.753Z,45.67
2018-11-27T01:16:24.785Z,44.87
2018-11-27T01:18:53.801Z,42.67
2018-11-27T01:21:23.086Z,40.60
2018-11-27T01:23:52.081Z,43.33
2018-11-27T01:26:21.112Z,37.40
2018-11-27T01:28:50.452Z,40.93
2018-11-27T01:31:19.451Z,41.23
2018-11-27T01:33:48.476Z,41.90
2018-11-27T01:36:17.521Z,44.07
2018-11-27T01:38:46.515Z,38.73
2018-11-27T01:41:15.773Z,41.63
2018-11-27T01:43:45.021Z,42.50
2018-11-27T01:46:14.112Z,39.53
2018-11-27T01:48:43.089Z,44.00
2018-11-27T01:51:12.071Z,40.43
2018-11-27T01:53:41.149Z,38.23
2018-11-27T01:56:10.185Z,37.00
2018-11-27T01:58:39.371Z,42.53
2018-11-27T02:01:08.658Z,38.87
2018-11-27T02:03:37.640Z,39.03
2018-11-27T02:06:07.225Z,40.47
2018-11-27T02:08:36.529Z,45.37
2018-11-27T02:11:05.517Z,41.77
2018-11-27T02:13:34.581Z,43.83
2018-11-27T02:16:04.227Z,40.93
2018-11-27T02:18:33.450Z,45.47
2018-11-27T02:21:02.428Z,42.47
2018-11-27T02:23:31.447Z,41.60
2018-11-27T02:26:00.643Z,42.03
2018-11-27T02:28:29.857Z,42.63
2018-11-27T02:30:58.830Z,37.27
2018-11-27T02:33:27.873Z,43.03
2018-11-27T02:35:56.866Z,40.93
2018-11-27T02:38:25.910Z,39.83
2018-11-27T02:40:54.905Z,42.87
2018-11-27T02:43:24.226Z,42.43
2018-11-27T02:45:53.637Z,38.57
2018-11-27T02:48:22.912Z,41.27
2018-11-27T02:50:51.906Z,43.37
2018-11-27T02:53:20.942Z,39.60
2018-11-27T02:55:49.929Z,39.97
2018-11-27T02:58:19.186Z,43.53
2018-11-27T03:00:48.186Z,42.23
2018-11-27T03:03:17.450Z,34.17
2018-11-27T03:05:46.558Z,36.70
2018-11-27T03:08:15.531Z,39.70
2018-11-27T03:10:44.721Z,37.23
2018-11-27T03:13:13.719Z,41.17
2018-11-27T03:15:42.704Z,41.00
2018-11-27T03:18:11.904Z,37.07
2018-11-27T03:20:40.860Z,42.40
2018-11-27T03:23:09.858Z,40.40
2018-11-27T03:25:38.852Z,38.63
2018-11-27T03:28:07.841Z,36.77
2018-11-27T03:30:36.845Z,39.30
2018-11-27T03:33:06.270Z,39.80
2018-11-27T03:35:35.441Z,36.10
2018-11-27T03:38:04.427Z,40.93
2018-11-27T03:40:33.672Z,39.90
2018-11-27T03:43:02.642Z,40.30
2018-11-27T03:45:31.652Z,41.03
2018-11-27T03:48:00.854Z,38.73
2018-11-27T03:50:31.648Z,36.57
2018-11-27T03:53:00.884Z,42.60
2018-11-27T03:55:29.846Z,37.33
2018-11-27T03:57:58.849Z,36.10
2018-11-27T04:00:29.065Z,37.77
2018-11-27T04:03:07.944Z,39.83
2018-11-27T04:05:37.159Z,34.60
2018-11-27T04:08:08.880Z,34.43
2018-11-27T04:10:39.133Z,34.93
2018-11-27T04:13:08.458Z,39.20
2018-11-27T04:15:37.660Z,35.10
2018-11-27T04:18:06.875Z,33.17
2018-11-27T04:20:35.907Z,38.60
2018-11-27T04:23:05.009Z,35.23
2018-11-27T04:25:33.998Z,31.17
2018-11-27T04:28:03.232Z,34.43
2018-11-27T04:30:32.301Z,38.23
2018-11-27T04:33:01.330Z,34.93
2018-11-27T04:35:30.413Z,31.23
2018-11-27T04:37:59.678Z,34.33
2018-11-27T04:40:28.662Z,36.30
2018-11-27T04:42:57.846Z,38.17
2018-11-27T04:45:27.463Z,37.73
2018-11-27T04:47:56.473Z,36.07
2018-11-27T04:50:25.803Z,30.57
2018-11-27T04:52:54.804Z,35.90
2018-11-27T04:55:23.822Z,30.60
2018-11-27T04:57:53.630Z,31.07
2018-11-27T05:00:24.901Z,36.40
2018-11-27T05:02:53.949Z,33.07
2018-11-27T05:05:23.126Z,30.93
2018-11-27T05:07:52.106Z,32.07
2018-11-27T05:10:22.285Z,29.93
2018-11-27T05:12:51.283Z,35.00
2018-11-27T05:15:22.987Z,34.10
2018-11-27T05:17:58.475Z,35.07
2018-11-27T05:20:27.458Z,35.00
2018-11-27T05:22:56.528Z,30.33
2018-11-27T05:25:25.513Z,35.27
2018-11-27T05:27:56.247Z,34.90
2018-11-27T05:30:28.377Z,37.90
2018-11-27T05:32:57.016Z,32.63
2018-11-27T05:35:29.451Z,31.67
2018-11-27T05:38:00.144Z,35.40
2018-11-27T05:40:29.184Z,35.57
2018-11-27T05:43:03.236Z,33.63
2018-11-27T05:45:33.460Z,34.50
2018-11-27T05:48:02.471Z,36.63
2018-11-27T05:50:31.507Z,39.57
2018-11-27T05:53:00.560Z,32.90
2018-11-27T05:55:29.732Z,32.67
2018-11-27T05:57:58.735Z,30.90
2018-11-27T06:00:30.063Z,33.27
2018-11-27T06:03:00.538Z,35.33
2018-11-27T06:05:29.592Z,34.37
2018-11-27T06:07:58.667Z,37.73
2018-11-27T06:10:27.823Z,28.40
2018-11-27T06:12:56.839Z,30.63
2018-11-27T06:15:26.331Z,37.13
2018-11-27T06:17:57.206Z,28.17
2018-11-27T06:20:26.220Z,33.80
2018-11-27T06:22:55.633Z,32.27
2018-11-27T06:25:26.247Z,34.30
2018-11-27T06:27:57.004Z,37.27
2018-11-27T06:30:27.586Z,34.90
2018-11-27T06:32:56.600Z,35.10
2018-11-27T06:35:42.611Z,32.60
2018-11-27T06:38:12.145Z,38.63
2018-11-27T06:40:42.601Z,36.97
2018-11-27T06:43:12.712Z,35.00
2018-11-27T06:45:43.207Z,32.37
2018-11-27T06:48:12.269Z,35.80
2018-11-27T06:50:41.357Z,29.37
2018-11-27T06:53:10.426Z,35.10
2018-11-27T06:55:39.726Z,32.20
2018-11-27T06:58:09.136Z,36.60
2018-11-27T07:00:38.111Z,34.17
2018-11-27T07:03:10.754Z,30.17
2018-11-27T07:05:40.029Z,29.00
2018-11-27T07:08:09.833Z,25.70
2018-11-27T07:10:42.026Z,30.87
2018-11-27T07:13:16.177Z,27.73
2018-11-27T07:15:45.223Z,31.17
2018-11-27T07:18:14.213Z,28.87
2018-11-27T07:20:43.244Z,30.00
2018-11-27T07:23:12.275Z,32.27
2018-11-27T07:25:41.393Z,32.20
2018-11-27T07:28:10.377Z,31.37
2018-11-27T07:30:41.101Z,27.83
2018-11-27T07:33:10.471Z,29.37
2018-11-27T07:35:39.454Z,27.60
2018-11-27T07:38:08.519Z,28.90
2018-11-27T07:40:37.552Z,31.87
2018-11-27T07:43:10.939Z,24.90
2018-11-27T07:45:40.472Z,28.07
2018-11-27T07:48:10.540Z,26.93
2018-11-27T07:50:39.852Z,28.17
2018-11-27T07:53:08.922Z,27.63
2018-11-27T07:55:38.015Z,28.43
2018-11-27T07:58:07.572Z,28.40
2018-11-27T08:00:36.696Z,26.03
2018-11-27T08:03:06.833Z,26.83
2018-11-27T08:05:38.561Z,27.73
2018-11-27T08:08:10.873Z,28.53
2018-11-27T08:10:40.083Z,31.07
2018-11-27T08:13:10.256Z,26.67
2018-11-27T08:15:39.249Z,24.70
2018-11-27T08:18:08.957Z,28.97
2018-11-27T08:20:37.979Z,27.93
2018-11-27T08:23:09.529Z,27.03
2018-11-27T08:25:38.513Z,25.90
2018-11-27T08:28:08.874Z,27.27
2018-11-27T08:30:38.343Z,28.67
2018-11-27T08:33:07.764Z,24.03
2018-11-27T08:35:36.985Z,25.70
2018-11-27T08:38:06.256Z,27.70
2018-11-27T08:40:35.281Z,20.97
2018-11-27T08:43:04.443Z,22.07
2018-11-27T08:45:33.447Z,22.80
2018-11-27T08:48:02.452Z,23.30
2018-11-27T08:50:31.460Z,25.43
2018-11-27T08:53:03.074Z,20.90
2018-11-27T08:55:34.780Z,23.50
2018-11-27T08:58:05.082Z,32.53
2018-11-27T09:00:34.120Z,20.73
2018-11-27T09:03:03.367Z,20.27
2018-11-27T09:05:32.470Z,25.37
2018-11-27T09:08:01.474Z,23.57
2018-11-27T09:10:31.457Z,31.17
2018-11-27T09:13:00.972Z,27.50
2018-11-27T09:15:29.853Z,21.80
2018-11-27T09:18:11.638Z,20.27
2018-11-27T09:20:40.629Z,23.40
2018-11-27T09:23:09.801Z,26.70
2018-11-27T09:25:38.786Z,23.50
2018-11-27T09:28:07.811Z,25.10
2018-11-27T09:30:37.048Z,23.07
2018-11-27T09:33:06.981Z,23.40
2018-11-27T09:35:36.420Z,18.43
2018-11-27T09:38:05.787Z,22.37
2018-11-27T09:40:34.778Z,18.33
2018-11-27T09:43:03.836Z,21.17
2018-11-27T09:45:32.848Z,20.27
2018-11-27T09:48:01.852Z,19.00
2018-11-27T09:50:30.865Z,21.60
2018-11-27T09:52:59.884Z,22.83
2018-11-27T09:55:29.048Z,21.43
2018-11-27T09:57:59.394Z,20.17
2018-11-27T10:00:29.049Z,19.73
2018-11-27T10:03:00.996Z,21.97
2018-11-27T10:05:29.993Z,22.63
2018-11-27T10:07:59.052Z,22.03
2018-11-27T10:10:28.082Z,21.90
2018-11-27T10:12:57.280Z,23.30
2018-11-27T10:15:27.869Z,24.37
2018-11-27T10:18:00.285Z,22.67
2018-11-27T10:20:34.181Z,23.33
2018-11-27T10:23:03.244Z,21.77
2018-11-27T10:25:32.224Z,22.30
2018-11-27T10:28:01.259Z,19.67
2018-11-27T10:30:30.269Z,22.13
2018-11-27T10:32:59.663Z,24.37
2018-11-27T10:35:30.656Z,19.53
2018-11-27T10:37:59.694Z,22.13
2018-11-27T10:40:28.889Z,19.00
2018-11-27T10:42:57.906Z,17.90
2018-11-27T10:45:27.712Z,17.93
2018-11-27T10:47:57.178Z,16.97
2018-11-27T10:50:26.199Z,24.80
2018-11-27T10:52:56.597Z,20.03
2018-11-27T10:55:26.148Z,20.10
2018-11-27T10:57:55.177Z,19.93
2018-11-27T11:00:31.576Z,16.10
2018-11-27T11:03:06.984Z,22.10
2018-11-27T11:05:38.121Z,33.13
2018-11-27T11:08:07.160Z,35.27
2018-11-27T11:10:36.536Z,33.17
2018-11-27T11:13:05.658Z,34.77
2018-11-27T11:15:34.715Z,30.30
2018-11-27T11:18:04.201Z,32.70
2018-11-27T11:20:33.218Z,35.93
2018-11-27T11:23:02.532Z,37.37
2018-11-27T11:25:31.759Z,41.33
2018-11-27T11:28:00.911Z,33.83
2018-11-27T11:30:29.884Z,33.90
2018-11-27T11:32:58.853Z,31.03
2018-11-27T11:35:28.097Z,33.87
2018-11-27T11:37:57.129Z,31.77
2018-11-27T11:40:26.408Z,32.63
2018-11-27T11:42:57.103Z,37.87
2018-11-27T11:45:26.316Z,42.17
2018-11-27T11:47:55.411Z,41.07
2018-11-27T11:50:29.712Z,34.70
2018-11-27T11:53:10.975Z,32.53
2018-11-27T11:55:40.009Z,34.33
2018-11-27T11:58:09.453Z,38.83
2018-11-27T12:00:43.007Z,36.93
2018-11-27T12:03:12.113Z,29.77
2018-11-27T12:05:41.129Z,33.73
2018-11-27T12:08:10.373Z,40.00
2018-11-27T12:10:39.591Z,33.73
2018-11-27T12:13:10.920Z,32.83
2018-11-27T12:15:39.980Z,32.67
2018-11-27T12:18:10.487Z,40.07
2018-11-27T12:20:40.843Z,33.17
2018-11-27T12:23:11.667Z,29.73
2018-11-27T12:25:41.184Z,27.10
2018-11-27T12:28:14.724Z,26.13
2018-11-27T12:30:40.332Z,30.70
2018-11-27T12:33:09.559Z,27.53
2018-11-27T12:35:38.613Z,29.43
2018-11-27T12:38:08.191Z,37.17
2018-11-27T12:40:37.685Z,34.97
2018-11-27T12:43:07.004Z,37.93
2018-11-27T12:45:36.230Z,38.53
2018-11-27T12:48:05.402Z,32.70
2018-11-27T12:50:43.988Z,32.30
2018-11-27T12:53:16.983Z,32.70
2018-11-27T12:55:46.912Z,43.80
2018-11-27T12:58:15.947Z,35.73
2018-11-27T13:00:45.148Z,30.13
2018-11-27T13:03:14.599Z,32.03
2018-11-27T13:05:45.404Z,29.50
2018-11-27T13:08:18.197Z,28.57
2018-11-27T13:10:47.258Z,32.47
2018-11-27T13:13:16.547Z,29.40
2018-11-27T13:15:46.078Z,28.80
2018-11-27T13:18:15.091Z,30.27
2018-11-27T13:20:44.198Z,27.77
2018-11-27T13:23:13.241Z,27.17
2018-11-27T13:25:42.234Z,28.13
2018-11-27T13:28:13.040Z,26.90
2018-11-27T13:30:49.964Z,30.90
2018-11-27T13:33:24.117Z,29.93
2018-11-27T13:35:53.161Z,30.10
2018-11-27T13:38:22.208Z,31.87
2018-11-27T13:40:51.482Z,27.73
2018-11-27T13:43:28.641Z,30.40
2018-11-27T13:45:59.789Z,25.63
2018-11-27T13:48:28.839Z,16.43
2018-11-27T13:50:58.442Z,18.33
2018-11-27T13:53:27.421Z,21.50
2018-11-27T13:55:56.437Z,20.63
2018-11-27T13:58:25.666Z,21.40
2018-11-27T14:00:54.681Z,17.90
2018-11-27T14:03:24.066Z,21.80
2018-11-27T14:05:53.373Z,18.60
2018-11-27T14:08:22.396Z,19.93
2018-11-27T14:10:51.998Z,17.33
2018-11-27T14:13:21.391Z,16.33
2018-11-27T14:15:56.305Z,19.17
2018-11-27T14:18:25.354Z,17.20
2018-11-27T14:24:26.920Z,15.43
2018-11-27T14:26:57.159Z,19.10
2018-11-27T14:29:26.180Z,18.57
2018-11-27T14:31:55.164Z,19.03
2018-11-27T14:34:24.168Z,18.00
2018-11-27T14:36:53.173Z,14.70
2018-11-27T14:39:22.199Z,19.43
2018-11-27T14:41:51.359Z,20.57
2018-11-27T14:44:20.399Z,22.57
2018-11-27T14:46:49.404Z,19.77
2018-11-27T14:49:18.375Z,21.70
2018-11-27T14:51:47.500Z,21.27
2018-11-27T14:54:16.544Z,22.23
2018-11-27T14:56:45.718Z,21.67
2018-11-27T14:59:16.180Z,25.13
2018-11-27T15:01:45.388Z,23.47
2018-11-27T15:04:14.777Z,25.40
2018-11-27T15:06:43.886Z,21.07
2018-11-27T15:09:12.955Z,22.13
2018-11-27T15:11:42.040Z,25.93
2018-11-27T15:14:11.698Z,21.97
2018-11-27T15:38:27.320Z,19.67
2018-11-27T15:40:56.306Z,22.17
2018-11-27T15:43:25.416Z,23.80
2018-11-27T15:45:54.491Z,22.17
2018-11-27T15:48:23.513Z,21.07
2018-11-27T15:50:52.576Z,21.40
2018-11-27T15:53:21.578Z,22.97
2018-11-27T15:55:50.598Z,22.60
2018-11-27T15:58:20.421Z,23.77
2018-11-27T16:00:49.553Z,19.47
2018-11-27T16:03:18.565Z,23.53
2018-11-27T16:05:47.629Z,23.37
2018-11-27T16:08:16.648Z,23.00
2018-11-27T16:10:45.661Z,24.67
2018-11-27T16:13:14.691Z,24.50
2018-11-27T16:15:43.713Z,24.27
2018-11-27T16:18:12.849Z,22.03
2018-11-27T16:20:42.024Z,24.47
2018-11-27T16:23:11.113Z,27.00
2018-11-27T16:25:40.440Z,23.27
2018-11-27T16:28:09.542Z,25.50
2018-11-27T16:30:38.538Z,29.57
2018-11-27T16:33:07.977Z,26.87
2018-11-27T16:35:37.290Z,24.07
2018-11-27T16:38:07.212Z,27.33
2018-11-27T16:40:38.088Z,30.37
2018-11-27T16:43:07.871Z,24.60
2018-11-27T16:45:36.974Z,26.20
2018-11-27T16:48:06.990Z,26.13
2018-11-27T16:50:36.251Z,25.53
2018-11-27T16:53:05.659Z,28.63
2018-11-27T16:55:34.661Z,25.73
2018-11-27T16:58:03.783Z,23.27
2018-11-27T17:00:33.929Z,22.93
2018-11-27T17:03:07.910Z,23.67
2018-11-27T17:05:43.792Z,26.90
2018-11-27T17:08:12.822Z,29.00
2018-11-27T17:10:44.729Z,18.20
2018-11-27T17:13:16.217Z,19.87
2018-11-27T17:15:45.442Z,19.57
2018-11-27T17:18:14.492Z,21.83
2018-11-27T17:20:45.445Z,18.20
2018-11-27T17:23:20.125Z,19.63
2018-11-27T17:25:49.161Z,43.00
2018-11-27T17:28:21.808Z,18.87
2018-11-27T17:31:02.075Z,18.10
2018-11-27T17:33:36.000Z,17.53
2018-11-27T17:36:09.382Z,18.97
2018-11-27T17:38:38.606Z,17.83
2018-11-27T17:41:08.777Z,16.37
2018-11-27T17:43:38.731Z,15.03
2018-11-27T17:46:08.296Z,18.83
2018-11-27T17:48:37.292Z,15.23
2018-11-27T17:51:07.369Z,17.87
2018-11-27T17:53:37.249Z,15.50
2018-11-27T17:56:06.357Z,13.20
2018-11-27T17:58:35.484Z,15.87
2018-11-27T18:01:04.520Z,11.47
2018-11-27T18:03:33.720Z,12.23
2018-11-27T18:06:03.039Z,13.87
2018-11-27T18:08:32.359Z,17.13
2018-11-27T18:11:01.382Z,16.50
2018-11-27T18:13:30.644Z,16.20
2018-11-27T18:15:59.680Z,15.47
2018-11-27T18:18:28.690Z,14.57
2018-11-27T18:20:57.721Z,15.13
2018-11-27T18:23:26.889Z,16.13
2018-11-27T18:25:56.349Z,17.47
2018-11-27T18:28:25.565Z,17.20
2018-11-27T18:30:54.950Z,16.60
2018-11-27T18:33:24.604Z,15.47
2018-11-27T18:35:53.732Z,16.43
2018-11-27T18:38:22.850Z,17.60
2018-11-27T18:40:52.103Z,18.57
2018-11-27T18:43:21.127Z,18.90
2018-11-27T18:45:50.147Z,15.70
2018-11-27T18:48:19.265Z,20.73
2018-11-27T18:50:48.602Z,14.90
2018-11-27T18:53:18.153Z,16.27
2018-11-27T18:55:47.147Z,15.77
2018-11-27T18:58:16.266Z,16.30
2018-11-27T19:00:45.310Z,15.07
2018-11-27T19:03:14.390Z,12.60
2018-11-27T19:05:43.442Z,15.37
2018-11-27T19:08:12.428Z,15.93
2018-11-27T19:10:41.708Z,16.73
2018-11-27T19:13:10.710Z,14.40
2018-11-27T19:15:43.148Z,17.83
2018-11-27T19:18:18.177Z,15.83
2018-11-27T19:20:47.267Z,15.73
2018-11-27T19:23:17.534Z,14.97
2018-11-27T19:25:46.636Z,17.20
2018-11-27T19:28:15.813Z,15.67
2018-11-27T19:30:45.408Z,14.90
2018-11-27T19:33:14.479Z,15.57
2018-11-27T19:35:43.883Z,17.13
2018-11-27T19:38:16.462Z,16.57
2018-11-27T19:40:45.524Z,18.80
2018-11-27T19:43:14.789Z,16.17
2018-11-27T19:45:43.819Z,16.03
2018-11-27T19:48:14.256Z,16.17
2018-11-27T19:50:43.272Z,17.27
2018-11-27T19:53:14.348Z,19.83
2018-11-27T19:55:43.770Z,22.57
2018-11-27T19:58:12.995Z,21.17
2018-11-27T20:00:42.433Z,23.13
2018-11-27T20:03:12.613Z,17.93
2018-11-27T20:05:42.382Z,18.83
2018-11-27T20:08:15.080Z,18.33
2018-11-27T20:10:44.421Z,17.13
2018-11-27T20:13:15.348Z,18.50
2018-11-27T20:15:45.460Z,18.93
2018-11-27T20:18:15.307Z,17.53
2018-11-27T20:20:44.588Z,18.00
2018-11-27T20:23:14.674Z,16.13
2018-11-27T20:25:44.437Z,20.93
2018-11-27T20:28:14.267Z,16.10
2018-11-27T20:30:43.645Z,16.30
2018-11-27T20:33:14.016Z,16.80
2018-11-27T20:35:45.633Z,17.40
2018-11-27T20:38:14.917Z,16.93
2018-11-27T20:40:45.269Z,18.47
2018-11-27T20:43:14.894Z,18.60
2018-11-27T20:45:45.758Z,19.93
2018-11-27T20:48:19.751Z,15.27
2018-11-27T20:50:51.448Z,17.70
2018-11-27T20:53:20.861Z,19.50
2018-11-27T20:55:51.710Z,17.20
2018-11-27T20:58:22.396Z,19.93
2018-11-27T21:00:53.193Z,18.17
2018-11-27T21:03:22.293Z,19.40
2018-11-27T21:05:51.597Z,18.80
2018-11-27T21:08:21.721Z,18.23
2018-11-27T21:10:50.967Z,22.80
2018-11-27T21:13:20.054Z,17.63
2018-11-27T21:15:49.301Z,22.27
2018-11-27T21:18:19.253Z,17.90
2018-11-27T21:20:48.259Z,19.33
2018-11-27T21:23:17.740Z,20.00
2018-11-27T21:25:48.058Z,15.97
2018-11-27T21:28:19.818Z,15.17
2018-11-27T21:30:51.900Z,17.13
2018-11-27T21:33:21.870Z,19.57
2018-11-27T21:35:50.966Z,20.27
2018-11-27T21:38:22.529Z,22.43
2018-11-27T21:40:51.570Z,18.60
2018-11-27T21:43:20.576Z,21.87
2018-11-27T21:45:49.665Z,17.70
2018-11-27T21:48:19.256Z,18.70
2018-11-27T21:50:49.362Z,22.07
2018-11-27T21:53:20.245Z,18.80
2018-11-27T21:55:50.669Z,18.87
2018-11-27T21:58:19.686Z,15.47
2018-11-27T22:00:49.507Z,16.60
2018-11-27T22:03:18.733Z,15.30
2018-11-27T22:05:48.205Z,18.07
2018-11-27T22:08:18.250Z,15.63
2018-11-27T22:10:48.534Z,19.67
2018-11-27T22:13:19.545Z,17.60
2018-11-27T22:15:49.355Z,18.93
2018-11-27T22:18:20.069Z,19.13
2018-11-27T22:20:53.968Z,17.37
2018-11-27T22:23:23.909Z,17.13
2018-11-27T22:25:53.778Z,15.97
2018-11-27T22:28:23.814Z,17.73
2018-11-27T22:30:52.927Z,18.83
2018-11-27T22:33:22.731Z,17.70
2018-11-27T22:35:51.805Z,18.03
2018-11-27T22:38:21.635Z,17.63
2018-11-27T22:40:51.443Z,18.07
2018-11-27T22:43:20.655Z,19.90
2018-11-27T22:45:50.828Z,18.93
2018-11-27T22:48:20.243Z,17.20
2018-11-27T22:50:50.168Z,21.17
2018-11-27T22:53:20.774Z,19.17
2018-11-27T22:55:49.799Z,18.93
2018-11-27T22:58:18.852Z,17.27
2018-11-27T23:00:50.238Z,15.17
2018-11-27T23:03:20.312Z,12.90
2018-11-27T23:05:50.173Z,13.20
2018-11-27T23:08:20.471Z,11.70
2018-11-27T23:10:50.475Z,13.03
2018-11-27T23:13:19.541Z,11.37
2018-11-27T23:15:48.628Z,12.87
2018-11-27T23:18:17.644Z,12.83
2018-11-27T23:20:46.652Z,12.77
2018-11-27T23:23:15.650Z,10.37
2018-11-27T23:25:44.713Z,11.77
2018-11-27T23:28:13.778Z,12.10
2018-11-27T23:30:43.322Z,10.33
2018-11-27T23:33:12.305Z,11.37
2018-11-27T23:35:41.385Z,11.10
2018-11-27T23:38:10.395Z,10.67
2018-11-27T23:40:40.084Z,10.40
2018-11-27T23:43:09.289Z,12.13
2018-11-27T23:45:38.501Z,11.47
2018-11-27T23:48:07.892Z,12.40
2018-11-27T23:50:36.999Z,11.83
2018-11-27T23:53:06.447Z,13.47
2018-11-27T23:55:35.522Z,12.20
2018-11-27T23:58:04.786Z,12.43
